Time;durP1;ratioP1;P1;durP2;ratioP2;P2;SDS_P1;SDS_P2;PMS_P1;PMS_P2;Temp;Humidity;BMP_temperature;BMP_pressure;BME280_temperature;BME280_humidity;BME280_pressure;Samples;Min_cycle;Max_cycle;Signal;HPM_P1;HPM_P2
2024/03/13 00:00:13;;;;;;;4.03;1.70;;;11.20;84.50;;;;;;5080900;28;20032;-63
2024/03/13 00:02:45;;;;;;;4.70;2.63;;;11.20;84.60;;;;;;5082755;28;20078;-63
2024/03/13 00:05:11;;;;;;;4.75;2.63;;;11.20;84.60;;;;;;5084520;28;20036;-63
2024/03/13 00:07:43;;;;;;;5.82;3.22;;;11.20;84.70;;;;;;5087048;28;20474;-63
2024/03/13 00:10:09;;;;;;;;;;;11.20;84.80;;;;;;5088633;28;20032;-63
2024/03/13 00:12:35;;;;;;;3.72;1.95;;;11.20;84.90;;;;;;5088714;28;19919;-62
2024/03/13 00:15:03;;;;;;;5.55;3.22;;;11.10;84.80;;;;;;5088527;28;20044;-62
2024/03/13 00:17:30;;;;;;;4.95;2.55;;;11.20;84.80;;;;;;5081227;28;20387;-62
2024/03/13 00:19:56;;;;;;;6.07;2.90;;;11.20;84.70;;;;;;5087595;28;20024;-62
2024/03/13 00:22:24;;;;;;;4.88;2.55;;;11.10;84.70;;;;;;5085491;28;20028;-63
2024/03/13 00:24:52;;;;;;;4.70;2.55;;;11.20;84.70;;;;;;5085645;28;20015;-63
2024/03/13 00:27:20;;;;;;;5.35;2.30;;;11.20;84.80;;;;;;5088236;28;20093;-63
2024/03/13 00:29:47;;;;;;;5.47;2.40;;;11.20;84.80;;;;;;5079443;28;20028;-63
2024/03/13 00:32:15;;;;;;;4.53;1.92;;;11.20;84.90;;;;;;5085713;28;20424;-63
2024/03/13 00:34:47;;;;;;;4.13;2.35;;;11.20;84.90;;;;;;5085322;28;20478;-63
2024/03/13 00:37:14;;;;;;;4.97;2.08;;;11.20;84.90;;;;;;5081684;28;20530;-63
2024/03/13 00:39:43;;;;;;;4.70;2.90;;;11.20;85.00;;;;;;5082852;28;20032;-63
2024/03/13 00:42:11;;;;;;;3.25;2.40;;;11.20;85.00;;;;;;5083961;28;20028;-63
2024/03/13 00:44:39;;;;;;;3.60;2.20;;;11.20;85.10;;;;;;5089796;28;20020;-63
2024/03/13 00:47:06;;;;;;;2.88;1.67;;;11.20;85.10;;;;;;5068209;28;20044;-63
2024/03/13 00:49:32;;;;;;;4.82;2.00;;;11.20;85.10;;;;;;5085504;28;20043;-62
2024/03/13 00:51:59;;;;;;;3.90;2.15;;;11.20;85.10;;;;;;5089635;28;20032;-61
2024/03/13 00:54:27;;;;;;;7.55;2.35;;;11.20;85.10;;;;;;5082489;28;20364;-61
2024/03/13 00:56:55;;;;;;;6.50;2.28;;;11.20;85.20;;;;;;5081782;28;20028;-63
2024/03/13 00:59:23;;;;;;;3.22;2.10;;;11.30;85.20;;;;;;5078473;28;20032;-62
2024/03/13 01:01:52;;;;;;;3.75;1.50;;;11.30;85.20;;;;;;5090230;28;20451;-62
2024/03/13 01:04:18;;;;;;;4.53;1.98;;;11.30;85.20;;;;;;5075292;28;20183;-62
2024/03/13 01:06:45;;;;;;;3.70;2.20;;;11.20;85.10;;;;;;5079186;28;20119;-62
2024/03/13 01:09:11;;;;;;;5.00;1.92;;;11.20;85.30;;;;;;5079727;28;20040;-62
2024/03/13 01:11:37;;;;;;;4.50;2.25;;;11.30;85.30;;;;;;5084256;28;20032;-61
2024/03/13 01:14:03;;;;;;;7.57;2.53;;;11.20;85.30;;;;;;5081876;28;20059;-61
2024/03/13 01:16:30;;;;;;;5.47;2.25;;;11.20;85.30;;;;;;5080877;28;20055;-62
2024/03/13 01:18:58;;;;;;;4.90;1.88;;;11.20;85.40;;;;;;5077806;28;20040;-62
2024/03/13 01:21:24;;;;;;;4.30;2.72;;;11.30;85.40;;;;;;5070103;28;20021;-62
2024/03/13 01:23:50;;;;;;;5.15;2.28;;;11.30;85.40;;;;;;5086207;28;20092;-62
2024/03/13 01:26:16;;;;;;;3.92;1.85;;;11.30;85.40;;;;;;5079175;28;20043;-62
2024/03/13 01:28:42;;;;;;;4.95;2.78;;;11.30;85.30;;;;;;5076393;28;20044;-62
2024/03/13 01:31:09;;;;;;;3.03;2.28;;;11.30;85.30;;;;;;5089680;28;20031;-62
2024/03/13 01:33:38;;;;;;;2.83;1.92;;;11.30;85.30;;;;;;5083161;28;20416;-62
2024/03/13 01:36:05;;;;;;;5.00;2.20;;;11.30;85.30;;;;;;5081135;28;20039;-62
2024/03/13 01:38:31;;;;;;;4.35;1.92;;;11.30;85.30;;;;;;5078154;28;20107;-61
2024/03/13 01:55:04;;;;;;;3.80;2.30;;;11.30;85.40;;;;;;5078444;28;20054;-62
2024/03/13 01:57:32;;;;;;;3.70;1.38;;;11.30;85.40;;;;;;5086765;28;20028;-62
2024/03/13 02:02:51;;;;;;;3.43;2.10;;;11.40;85.40;;;;;;5086363;28;20445;-63
2024/03/13 02:05:18;;;;;;;4.38;2.08;;;11.30;85.40;;;;;;5081723;28;20347;-62
2024/03/13 02:07:48;;;;;;;4.22;1.73;;;11.30;85.50;;;;;;5089275;28;20043;-62
2024/03/13 02:10:15;;;;;;;3.30;1.58;;;11.40;85.50;;;;;;5082256;28;20069;-62
2024/03/13 02:13:10;;;;;;;4.03;2.40;;;11.40;85.50;;;;;;5079781;28;20039;-62
2024/03/13 02:15:41;;;;;;;2.42;1.77;;;11.40;85.50;;;;;;5083976;28;20056;-61
2024/03/13 02:18:29;;;;;;;2.33;1.50;;;11.40;85.50;;;;;;5083690;28;20039;-61
2024/03/13 02:20:58;;;;;;;7.38;2.15;;;11.40;85.60;;;;;;5084641;28;20464;-62
2024/03/13 02:23:34;;;;;;;3.00;2.08;;;11.40;85.50;;;;;;5083278;28;20081;-62
2024/03/13 02:26:00;;;;;;;3.50;1.83;;;11.40;85.50;;;;;;5084016;28;20024;-62
2024/03/13 02:28:33;;;;;;;2.95;1.90;;;11.40;85.60;;;;;;5078331;28;20399;-61
2024/03/13 02:31:00;;;;;;;4.32;2.25;;;11.40;86.10;;;;;;5078997;28;20028;-62
2024/03/13 02:33:27;;;;;;;3.72;1.92;;;11.50;85.50;;;;;;5078282;28;20045;-61
2024/03/13 02:35:53;;;;;;;4.32;1.85;;;11.50;85.50;;;;;;5087869;28;20020;-61
2024/03/13 02:38:18;;;;;;;3.17;1.60;;;11.50;85.40;;;;;;5083895;28;20402;-61
2024/03/13 02:40:45;;;;;;;3.38;2.05;;;11.50;85.50;;;;;;5080721;28;20035;-61
2024/03/13 02:43:11;;;;;;;4.75;2.40;;;11.50;86.10;;;;;;5084864;28;20481;-62
2024/03/13 02:45:37;;;;;;;3.42;1.83;;;11.50;85.50;;;;;;5083261;28;20103;-61
2024/03/13 02:48:05;;;;;;;2.83;1.98;;;11.50;85.50;;;;;;5087322;28;20028;-61
2024/03/13 02:50:31;;;;;;;4.18;2.17;;;11.50;85.50;;;;;;5087666;28;20040;-62
2024/03/13 02:52:57;;;;;;;3.63;1.90;;;11.50;85.60;;;;;;5087214;28;20541;-62
2024/03/13 02:55:23;;;;;;;5.40;2.72;;;11.50;85.60;;;;;;5081193;28;20040;-61
2024/03/13 02:57:49;;;;;;;3.28;2.38;;;11.50;85.60;;;;;;5084895;28;20028;-61
2024/03/13 03:00:16;;;;;;;4.28;2.15;;;11.50;85.60;;;;;;5086701;28;20556;-61
2024/03/13 03:02:42;;;;;;;19.02;3.10;;;11.50;85.60;;;;;;5078697;28;20043;-61
2024/03/13 03:05:08;;;;;;;3.70;2.00;;;11.50;85.60;;;;;;5086977;28;20115;-61
2024/03/13 03:07:34;;;;;;;4.40;2.78;;;11.50;85.70;;;;;;5081590;28;20179;-61
2024/03/13 03:10:01;;;;;;;3.70;2.22;;;11.50;85.80;;;;;;5087436;28;20178;-61
2024/03/13 03:12:28;;;;;;;3.72;2.13;;;11.50;85.80;;;;;;5085187;28;20102;-62
2024/03/13 03:14:56;;;;;;;5.88;2.33;;;11.50;85.80;;;;;;5083749;28;20024;-62
2024/03/13 03:17:23;;;;;;;4.22;2.08;;;11.50;85.80;;;;;;5079048;28;20040;-62
2024/03/13 03:19:52;;;;;;;5.88;3.10;;;11.50;85.80;;;;;;5088070;28;20067;-62
2024/03/13 03:22:18;;;;;;;4.75;2.45;;;11.50;85.90;;;;;;5074337;28;20379;-62
2024/03/13 03:24:48;;;;;;;4.30;2.38;;;11.50;85.90;;;;;;5079817;28;20040;-62
2024/03/13 03:27:14;;;;;;;4.97;2.33;;;11.50;85.90;;;;;;5078438;28;20024;-61
2024/03/13 03:29:40;;;;;;;4.63;2.20;;;11.50;85.90;;;;;;5084221;28;20089;-61
2024/03/13 03:32:07;;;;;;;8.93;2.15;;;11.50;85.80;;;;;;5080096;28;20020;-62
2024/03/13 03:34:34;;;;;;;3.88;2.38;;;11.50;85.80;;;;;;5081773;28;20036;-61
2024/03/13 03:37:01;;;;;;;5.40;2.95;;;11.60;85.90;;;;;;5085525;28;20059;-61
2024/03/13 03:39:29;;;;;;;6.72;2.65;;;11.60;85.90;;;;;;5087487;28;20016;-62
2024/03/13 03:41:58;;;;;;;3.72;2.10;;;11.60;85.90;;;;;;5082587;28;20024;-62
2024/03/13 03:44:24;;;;;;;3.67;2.30;;;11.60;85.90;;;;;;5084319;28;20888;-62
2024/03/13 03:46:50;;;;;;;4.50;2.22;;;11.60;86.00;;;;;;5081144;28;20060;-62
2024/03/13 03:49:16;;;;;;;4.50;1.95;;;11.60;85.90;;;;;;5078884;28;20112;-62
2024/03/13 03:51:42;;;;;;;5.20;2.38;;;11.60;86.00;;;;;;5084771;28;20044;-62
2024/03/13 03:54:08;;;;;;;3.85;2.10;;;11.60;86.00;;;;;;5087235;28;20028;-62
2024/03/13 03:56:38;;;;;;;5.80;2.83;;;11.60;86.00;;;;;;5088977;28;20085;-61
2024/03/13 03:59:08;;;;;;;5.85;2.20;;;11.60;86.00;;;;;;5090398;28;20098;-62
2024/03/13 04:01:35;;;;;;;5.55;2.50;;;11.60;86.10;;;;;;5089512;28;20436;-61
2024/03/13 04:04:04;;;;;;;5.15;2.60;;;11.60;86.20;;;;;;5083783;28;20111;-62
2024/03/13 04:06:30;;;;;;;5.05;2.75;;;11.60;86.10;;;;;;5080454;28;20066;-61
2024/03/13 04:08:56;;;;;;;5.70;2.17;;;11.60;86.10;;;;;;5083420;28;20036;-62
2024/03/13 04:11:23;;;;;;;6.65;3.13;;;11.60;86.10;;;;;;5086621;28;20035;-61
2024/03/13 04:13:50;;;;;;;4.28;2.15;;;11.60;86.00;;;;;;5084193;28;20024;-62
2024/03/13 04:16:20;;;;;;;3.90;2.00;;;11.60;86.10;;;;;;5081640;28;20060;-62
2024/03/13 04:18:46;;;;;;;5.00;2.65;;;11.60;86.00;;;;;;5086648;28;20036;-62
2024/03/13 04:21:12;;;;;;;5.68;3.30;;;11.60;86.00;;;;;;5084626;28;20032;-61
2024/03/13 04:23:39;;;;;;;5.78;2.85;;;11.60;86.00;;;;;;5079513;28;20447;-62
2024/03/13 04:26:05;;;;;;;4.07;2.25;;;11.60;86.00;;;;;;5085694;28;20024;-62
2024/03/13 04:28:36;;;;;;;7.80;2.90;;;11.60;86.00;;;;;;5080187;28;20024;-62
2024/03/13 04:31:03;;;;;;;4.03;2.53;;;11.60;86.10;;;;;;5079307;28;20103;-62
2024/03/13 04:33:29;;;;;;;4.22;2.42;;;11.60;86.10;;;;;;5083376;28;20039;-62
2024/03/13 04:35:58;;;;;;;4.53;1.92;;;11.60;86.10;;;;;;5083782;28;20021;-62
2024/03/13 04:38:27;;;;;;;3.72;2.20;;;11.70;86.20;;;;;;5077343;28;20648;-62
2024/03/13 04:40:53;;;;;;;5.10;2.65;;;11.60;86.10;;;;;;5083457;28;20028;-62
2024/03/13 04:43:19;;;;;;;3.20;2.05;;;11.60;86.10;;;;;;5076822;28;20498;-62
2024/03/13 04:45:45;;;;;;;5.85;2.70;;;11.70;86.20;;;;;;5083373;28;20445;-62
2024/03/13 04:48:13;;;;;;;3.75;2.30;;;11.60;86.10;;;;;;5085850;28;20063;-62
2024/03/13 04:50:39;;;;;;;4.15;2.45;;;11.70;86.20;;;;;;5086590;28;20043;-62
2024/03/13 04:53:04;;;;;;;5.75;2.17;;;11.70;86.20;;;;;;5085813;28;20471;-62
2024/03/13 04:55:30;;;;;;;5.90;2.75;;;11.70;86.20;;;;;;5083264;28;20036;-62
2024/03/13 04:57:57;;;;;;;7.03;2.95;;;11.70;86.30;;;;;;5080683;28;20028;-62
2024/03/13 05:00:23;;;;;;;4.60;2.15;;;11.70;86.20;;;;;;5085027;28;20025;-62
2024/03/13 05:02:49;;;;;;;4.95;2.22;;;11.70;86.30;;;;;;5079180;28;20059;-63
2024/03/13 05:05:15;;;;;;;9.13;2.40;;;11.70;86.30;;;;;;5082231;28;20078;-63
2024/03/13 05:07:41;;;;;;;3.60;2.08;;;11.70;86.40;;;;;;5088511;28;20402;-63
2024/03/13 05:10:09;;;;;;;4.45;2.50;;;11.70;86.40;;;;;;5082945;28;20428;-63
2024/03/13 05:12:38;;;;;;;4.80;1.88;;;11.80;86.40;;;;;;5084412;28;20090;-63
2024/03/13 05:15:10;;;;;;;4.10;1.80;;;11.80;86.40;;;;;;5082944;28;20604;-63
2024/03/13 05:17:36;;;;;;;2.67;1.95;;;11.80;86.50;;;;;;5085508;28;20032;-62
2024/03/13 05:20:11;;;;;;;4.22;2.45;;;11.80;86.50;;;;;;5085660;28;20029;-62
2024/03/13 05:22:37;;;;;;;5.25;2.97;;;11.80;86.50;;;;;;5086849;28;20467;-62
2024/03/13 05:25:11;;;;;;;4.70;2.28;;;11.80;86.50;;;;;;5085971;28;20028;-62
2024/03/13 05:27:37;;;;;;;4.53;1.95;;;11.80;86.50;;;;;;5084025;28;20090;-62
2024/03/13 05:30:03;;;;;;;4.53;1.63;;;11.80;86.40;;;;;;5081661;28;20521;-62
2024/03/13 05:32:29;;;;;;;4.15;2.05;;;11.90;86.50;;;;;;5081873;28;20032;-62
2024/03/13 05:34:55;;;;;;;5.20;2.85;;;11.90;86.50;;;;;;5081380;28;20461;-62
2024/03/13 05:37:21;;;;;;;5.75;2.92;;;11.90;86.50;;;;;;5083120;28;20041;-63
2024/03/13 05:39:51;;;;;;;4.03;2.50;;;11.90;86.60;;;;;;5084504;28;20028;-63
2024/03/13 05:42:17;;;;;;;5.28;2.67;;;11.90;86.70;;;;;;5087470;28;20020;-63
2024/03/13 05:44:44;;;;;;;13.07;3.75;;;12.00;86.90;;;;;;5082315;28;20036;-63
2024/03/13 05:47:10;;;;;;;6.18;2.85;;;12.00;86.90;;;;;;5087748;28;20462;-62
2024/03/13 05:49:36;;;;;;;5.40;2.72;;;12.00;86.90;;;;;;5081453;28;20449;-62
2024/03/13 05:52:01;;;;;;;3.67;2.17;;;12.00;87.10;;;;;;5086706;28;20032;-62
2024/03/13 05:54:28;;;;;;;4.30;2.35;;;12.00;87.30;;;;;;5081392;28;20062;-62
2024/03/13 05:56:54;;;;;;;6.82;2.88;;;12.10;87.30;;;;;;5085349;28;20497;-61
2024/03/13 05:59:20;;;;;;;5.32;2.83;;;12.00;87.30;;;;;;5084914;28;20533;-62
2024/03/13 06:01:46;;;;;;;6.13;2.15;;;12.10;87.50;;;;;;5081558;28;20020;-62
2024/03/13 06:04:12;;;;;;;4.15;2.05;;;12.10;87.60;;;;;;5088520;28;20024;-62
2024/03/13 06:06:38;;;;;;;9.85;2.67;;;12.10;87.90;;;;;;5083371;28;20036;-62
2024/03/13 06:09:06;;;;;;;5.63;2.45;;;12.10;87.90;;;;;;5088827;28;20548;-62
2024/03/13 06:11:33;;;;;;;5.97;2.50;;;12.10;88.00;;;;;;5086176;28;20503;-62
2024/03/13 06:13:59;;;;;;;4.15;2.20;;;12.10;88.00;;;;;;5081048;28;20371;-62
2024/03/13 06:16:25;;;;;;;4.90;2.95;;;12.20;88.10;;;;;;5086833;28;20047;-62
2024/03/13 06:18:51;;;;;;;10.48;3.83;;;12.20;88.20;;;;;;5078583;28;20036;-62
2024/03/13 06:21:19;;;;;;;4.90;3.00;;;12.20;88.20;;;;;;5084649;28;20091;-62
2024/03/13 06:23:53;;;;;;;4.50;1.77;;;12.20;88.10;;;;;;5082130;28;20035;-62
2024/03/13 06:26:18;;;;;;;5.15;2.38;;;12.20;88.10;;;;;;5083423;28;20024;-62
2024/03/13 06:31:29;;;;;;;3.88;1.92;;;12.20;88.10;;;;;;5084292;28;20521;-62
2024/03/13 06:33:55;;;;;;;3.55;2.00;;;12.20;88.30;;;;;;5081882;28;20021;-62
2024/03/13 06:36:21;;;;;;;4.22;2.08;;;12.20;88.30;;;;;;5076507;28;20045;-62
2024/03/13 06:38:47;;;;;;;3.92;1.70;;;12.20;88.40;;;;;;5080497;28;20403;-62
2024/03/13 06:41:13;;;;;;;3.45;1.58;;;12.30;88.50;;;;;;5075835;28;20466;-64
2024/03/13 06:43:40;;;;;;;6.47;2.25;;;12.30;88.40;;;;;;5083403;28;20017;-61
2024/03/13 06:46:09;;;;;;;5.00;1.90;;;12.30;88.90;;;;;;5082439;28;20854;-62
2024/03/13 06:48:35;;;;;;;3.38;1.58;;;12.30;88.40;;;;;;5073450;28;20025;-62
2024/03/13 06:51:14;;;;;;;3.78;1.90;;;12.30;88.40;;;;;;5083551;28;20036;-62
2024/03/13 06:53:40;;;;;;;1.52;0.85;;;12.30;88.50;;;;;;5078032;28;20483;-63
2024/03/13 06:56:05;;;;;;;2.33;1.23;;;12.40;88.50;;;;;;5087059;28;20103;-62
2024/03/13 06:58:31;;;;;;;2.80;1.35;;;12.40;88.50;;;;;;5088499;28;20035;-62
2024/03/13 07:01:00;;;;;;;3.13;1.50;;;12.30;88.70;;;;;;5085991;28;20024;-62
2024/03/13 07:03:26;;;;;;;1.73;1.00;;;12.30;88.90;;;;;;5088070;28;20036;-62
2024/03/13 07:05:51;;;;;;;2.08;1.20;;;12.30;89.10;;;;;;5080584;28;20025;-63
2024/03/13 07:08:18;;;;;;;3.10;1.60;;;12.30;89.10;;;;;;5087345;28;20038;-63
2024/03/13 07:10:44;;;;;;;3.08;1.23;;;12.30;89.20;;;;;;5081720;28;20035;-62
2024/03/13 07:13:11;;;;;;;1.98;1.23;;;12.30;89.40;;;;;;5086652;28;20033;-62
2024/03/13 07:15:39;;;;;;;3.35;1.35;;;12.30;89.70;;;;;;5086514;28;20078;-62
2024/03/13 07:18:05;;;;;;;2.28;1.17;;;12.30;89.60;;;;;;5091190;28;20028;-63
2024/03/13 07:20:31;;;;;;;3.20;1.48;;;12.30;89.70;;;;;;5089599;28;20372;-63
2024/03/13 07:22:57;;;;;;;3.30;1.73;;;12.30;89.80;;;;;;5092392;28;20022;-63
2024/03/13 07:25:23;;;;;;;3.15;0.90;;;12.40;89.70;;;;;;5087225;28;20035;-63
2024/03/13 07:27:48;;;;;;;3.22;1.85;;;12.40;89.80;;;;;;5071617;28;20387;-63
2024/03/13 07:30:14;;;;;;;3.78;1.70;;;12.40;89.80;;;;;;5089975;28;20044;-63
2024/03/13 07:32:41;;;;;;;4.15;1.90;;;12.40;90.00;;;;;;5088733;28;20032;-62
2024/03/13 07:35:10;;;;;;;3.22;1.60;;;12.40;90.00;;;;;;5088850;28;20351;-63
2024/03/13 07:37:37;;;;;;;3.47;1.65;;;12.40;90.00;;;;;;5080367;28;20363;-63
2024/03/13 07:40:05;;;;;;;9.45;2.42;;;12.40;90.00;;;;;;5086833;28;20020;-63
2024/03/13 07:42:31;;;;;;;3.67;1.88;;;12.40;90.00;;;;;;5088910;28;20107;-63
2024/03/13 07:44:57;;;;;;;3.72;1.98;;;12.50;90.00;;;;;;5081688;28;20024;-63
2024/03/13 07:47:23;;;;;;;8.20;2.53;;;12.50;90.00;;;;;;5086201;28;20028;-62
2024/03/13 07:49:49;;;;;;;5.53;2.75;;;12.50;90.10;;;;;;5083338;28;20113;-63
2024/03/13 07:52:15;;;;;;;3.25;1.90;;;12.40;90.20;;;;;;5081605;28;20039;-63
2024/03/13 07:54:41;;;;;;;8.07;2.03;;;12.40;90.30;;;;;;5085814;28;20491;-62
2024/03/13 07:57:11;;;;;;;3.15;1.95;;;12.40;90.40;;;;;;5084963;28;20404;-62
2024/03/13 07:59:40;;;;;;;5.45;2.47;;;12.40;90.40;;;;;;5103216;28;20036;-63
2024/03/13 08:02:07;;;;;;;4.75;2.17;;;12.40;90.50;;;;;;5088408;28;20031;-62
2024/03/13 08:04:36;;;;;;;4.57;2.67;;;12.50;90.50;;;;;;5087338;28;20039;-62
2024/03/13 08:07:03;;;;;;;2.65;1.58;;;12.50;90.50;;;;;;5085241;28;20035;-62
2024/03/13 08:09:29;;;;;;;2.95;2.15;;;12.50;90.50;;;;;;5088817;28;20043;-62
2024/03/13 08:11:55;;;;;;;8.35;2.10;;;12.60;90.50;;;;;;5087418;28;20044;-62
2024/03/13 08:14:22;;;;;;;4.00;2.03;;;12.60;90.50;;;;;;5090559;28;20440;-63
2024/03/13 08:16:48;;;;;;;4.03;2.00;;;12.60;90.80;;;;;;5078893;28;20429;-62
2024/03/13 08:19:14;;;;;;;3.35;1.98;;;12.60;90.50;;;;;;5090331;28;20024;-64
2024/03/13 08:21:39;;;;;;;5.70;2.53;;;12.60;90.50;;;;;;5089668;28;20035;-62
2024/03/13 08:24:06;;;;;;;5.05;2.13;;;12.60;90.50;;;;;;5077783;28;20110;-62
2024/03/13 08:26:32;;;;;;;3.53;1.98;;;12.60;90.50;;;;;;5071981;28;20039;-63
2024/03/13 08:28:58;;;;;;;4.10;2.22;;;12.70;90.50;;;;;;5088691;28;20035;-64
2024/03/13 08:31:23;;;;;;;4.72;2.20;;;12.70;90.50;;;;;;5086476;28;20023;-64
2024/03/13 08:33:49;;;;;;;6.60;2.30;;;12.70;90.50;;;;;;5078512;28;20056;-65
2024/03/13 08:36:18;;;;;;;4.32;2.28;;;12.70;90.50;;;;;;5073623;28;20033;-63
2024/03/13 08:38:44;;;;;;;5.82;3.03;;;12.70;90.60;;;;;;5083099;28;20032;-62
2024/03/13 08:41:13;;;;;;;6.63;3.47;;;12.70;90.60;;;;;;5083245;28;20132;-63
2024/03/13 08:43:38;;;;;;;9.07;3.13;;;12.70;90.70;;;;;;5075013;28;20494;-63
2024/03/13 08:46:04;;;;;;;6.13;3.45;;;12.70;90.70;;;;;;5082591;28;20028;-63
2024/03/13 08:48:30;;;;;;;5.32;2.42;;;12.70;90.70;;;;;;5073621;28;20057;-62
2024/03/13 08:50:57;;;;;;;5.05;2.67;;;12.70;90.70;;;;;;5081338;28;20036;-62
2024/03/13 08:53:24;;;;;;;3.95;2.97;;;12.80;90.70;;;;;;5078104;28;20093;-62
2024/03/13 08:55:49;;;;;;;6.85;3.03;;;12.80;90.70;;;;;;5087797;28;20022;-62
2024/03/13 08:58:15;;;;;;;3.78;2.63;;;12.80;90.60;;;;;;5085686;28;20143;-63
2024/03/13 09:00:42;;;;;;;3.22;2.00;;;12.80;90.60;;;;;;5076439;28;20399;-63
2024/03/13 09:03:09;;;;;;;4.88;3.53;;;12.80;90.60;;;;;;5086365;28;20073;-62
2024/03/13 09:05:35;;;;;;;7.88;3.00;;;12.90;90.60;;;;;;5083033;28;20028;-62
2024/03/13 09:08:02;;;;;;;4.60;2.00;;;12.90;90.70;;;;;;5081277;28;20473;-62
2024/03/13 09:10:28;;;;;;;5.25;2.15;;;12.90;90.60;;;;;;5085231;28;20055;-62
2024/03/13 09:12:54;;;;;;;4.38;2.40;;;12.90;90.60;;;;;;5069133;28;20411;-62
2024/03/13 09:15:20;;;;;;;3.50;2.15;;;12.90;90.60;;;;;;5083299;28;20021;-63
2024/03/13 09:17:47;;;;;;;3.00;1.73;;;13.00;90.60;;;;;;5080232;28;20114;-62
2024/03/13 09:20:13;;;;;;;2.85;1.55;;;13.00;90.60;;;;;;5082376;28;20052;-62
2024/03/13 09:22:41;;;;;;;3.35;1.88;;;13.00;90.60;;;;;;5080388;28;20074;-62
2024/03/13 09:25:11;;;;;;;4.70;1.77;;;13.00;90.60;;;;;;5071813;28;20103;-62
2024/03/13 09:27:40;;;;;;;3.33;1.55;;;13.00;90.60;;;;;;5079074;28;20036;-62
2024/03/13 09:30:06;;;;;;;4.38;2.40;;;13.00;90.60;;;;;;5075482;28;20156;-63
2024/03/13 09:32:33;;;;;;;3.80;2.65;;;13.00;90.60;;;;;;5080768;28;20093;-63
2024/03/13 09:34:59;;;;;;;5.20;2.05;;;13.00;90.60;;;;;;5076150;28;20106;-63
2024/03/13 09:37:26;;;;;;;4.47;2.20;;;13.10;90.70;;;;;;5071575;28;20062;-63
2024/03/13 09:39:52;;;;;;;2.30;1.42;;;13.00;90.70;;;;;;5083668;28;20052;-62
2024/03/13 09:42:20;;;;;;;2.78;1.55;;;13.10;90.70;;;;;;5076010;28;20043;-62
2024/03/13 09:44:48;;;;;;;2.00;1.40;;;13.20;90.60;;;;;;5072188;28;20486;-62
2024/03/13 09:47:14;;;;;;;2.88;1.67;;;13.20;90.60;;;;;;5076844;28;20493;-62
2024/03/13 09:49:44;;;;;;;2.20;1.60;;;13.20;90.60;;;;;;5079665;28;20020;-62
2024/03/13 09:52:15;;;;;;;3.05;1.58;;;13.20;90.60;;;;;;5077044;28;20043;-63
2024/03/13 09:54:43;;;;;;;5.50;1.58;;;13.20;90.60;;;;;;5073392;28;20118;-63
2024/03/13 09:57:12;;;;;;;2.35;1.88;;;13.30;90.50;;;;;;5078254;28;20040;-63
2024/03/13 09:59:38;;;;;;;2.30;1.27;;;13.30;90.50;;;;;;5084042;28;20032;-62
2024/03/13 10:02:24;;;;;;;2.45;1.08;;;13.30;90.50;;;;;;5084395;28;20047;-62
2024/03/13 10:04:51;;;;;;;2.85;1.48;;;13.40;90.50;;;;;;5086036;28;20042;-63
2024/03/13 10:07:21;;;;;;;4.22;2.17;;;13.30;90.50;;;;;;5082002;28;20035;-63
2024/03/13 10:09:47;;;;;;;5.97;2.28;;;13.30;90.50;;;;;;5088448;28;20039;-64
2024/03/13 10:12:22;;;;;;;5.60;2.97;;;13.30;90.50;;;;;;5082944;28;20078;-63
2024/03/13 10:14:52;;;;;;;5.13;1.98;;;13.30;90.50;;;;;;5086699;28;20030;-63
2024/03/13 10:17:26;;;;;;;4.65;2.30;;;13.30;90.50;;;;;;5081098;28;20063;-63
2024/03/13 10:19:55;;;;;;;6.40;2.22;;;13.30;90.60;;;;;;5078089;28;20027;-63
2024/03/13 10:22:21;;;;;;;6.22;3.05;;;13.30;90.60;;;;;;5075468;28;20092;-63
2024/03/13 10:24:51;;;;;;;10.57;4.47;;;13.20;90.50;;;;;;5078199;28;20052;-62
2024/03/13 10:27:20;;;;;;;6.65;3.05;;;13.20;90.60;;;;;;5080127;28;20510;-62
2024/03/13 10:29:48;;;;;;;7.68;3.05;;;13.30;90.50;;;;;;5082589;28;20105;-63
2024/03/13 10:32:16;;;;;;;7.82;3.80;;;13.30;90.50;;;;;;5077891;28;20024;-63
2024/03/13 10:34:42;;;;;;;7.05;3.38;;;13.30;90.50;;;;;;5079346;28;20517;-62
2024/03/13 10:37:12;;;;;;;9.23;4.28;;;13.30;90.50;;;;;;5077977;28;20028;-62
2024/03/13 10:39:41;;;;;;;8.25;4.20;;;13.20;90.40;;;;;;5085245;28;20031;-62
2024/03/13 10:42:07;;;;;;;9.00;3.50;;;13.20;90.40;;;;;;5084295;28;20592;-62
2024/03/13 10:44:34;;;;;;;6.22;3.60;;;13.20;90.40;;;;;;5078460;28;20111;-63
2024/03/13 10:47:00;;;;;;;10.95;3.53;;;13.30;90.40;;;;;;5078949;28;20036;-63
2024/03/13 10:49:28;;;;;;;14.40;4.63;;;13.30;90.40;;;;;;5084771;28;20031;-63
2024/03/13 10:51:57;;;;;;;7.75;4.18;;;13.30;90.30;;;;;;5083947;28;20059;-63
2024/03/13 10:54:27;;;;;;;10.15;3.92;;;13.30;90.40;;;;;;5088230;28;20016;-63
2024/03/13 10:56:52;;;;;;;8.88;3.40;;;13.30;90.40;;;;;;5086162;28;20090;-63
2024/03/13 10:59:19;;;;;;;9.73;4.15;;;13.20;90.40;;;;;;5090747;28;20417;-64
2024/03/13 11:01:51;;;;;;;13.40;4.20;;;13.20;90.50;;;;;;5079518;28;20086;-64
2024/03/13 11:04:17;;;;;;;9.85;4.63;;;13.20;90.50;;;;;;5083954;28;20021;-64
2024/03/13 11:06:43;;;;;;;16.20;5.25;;;13.20;90.50;;;;;;5088127;28;20462;-64
2024/03/13 11:09:21;;;;;;;9.35;5.28;;;13.20;90.40;;;;;;5077034;28;20099;-64
2024/03/13 11:11:52;;;;;;;8.23;3.38;;;13.30;90.50;;;;;;5087687;28;20510;-64
2024/03/13 11:14:20;;;;;;;5.55;2.92;;;13.40;90.40;;;;;;5076638;28;20043;-64
2024/03/13 11:16:50;;;;;;;9.32;4.00;;;13.50;90.30;;;;;;5091291;28;20054;-64
2024/03/13 11:19:20;;;;;;;7.95;4.22;;;13.50;90.20;;;;;;5067968;28;20028;-64
2024/03/13 11:21:57;;;;;;;8.48;3.15;;;13.60;90.20;;;;;;5073616;28;20158;-63
2024/03/13 11:24:25;;;;;;;7.97;3.80;;;13.60;90.10;;;;;;5075883;28;20023;-63
2024/03/13 11:26:52;;;;;;;11.20;3.53;;;13.70;90.00;;;;;;5079771;28;20032;-63
2024/03/13 11:29:27;;;;;;;8.65;4.20;;;13.70;89.90;;;;;;5076868;28;20025;-62
2024/03/13 11:31:55;;;;;;;9.23;4.15;;;13.70;89.90;;;;;;5069284;28;20031;-62
2024/03/13 11:34:24;;;;;;;9.07;3.88;;;13.80;90.00;;;;;;5071775;28;20032;-62
2024/03/13 11:36:51;;;;;;;8.32;4.00;;;13.70;89.60;;;;;;5082098;28;20024;-62
2024/03/13 11:39:18;;;;;;;8.10;3.55;;;13.70;89.60;;;;;;5081414;28;20588;-63
2024/03/13 11:41:44;;;;;;;8.93;4.30;;;13.70;89.60;;;;;;5075071;28;20051;-63
2024/03/13 11:44:16;;;;;;;7.90;4.20;;;13.70;89.60;;;;;;5078046;28;20032;-63
2024/03/13 11:46:48;;;;;;;9.40;4.35;;;13.70;89.40;;;;;;5081156;28;20070;-64
2024/03/13 11:49:14;;;;;;;8.55;4.13;;;13.70;89.10;;;;;;5084504;28;20365;-64
2024/03/13 11:52:03;;;;;;;9.23;3.78;;;13.70;89.00;;;;;;5078791;28;20063;-64
2024/03/13 11:54:32;;;;;;;6.15;3.30;;;13.80;88.70;;;;;;5080789;28;20402;-64
2024/03/13 11:57:14;;;;;;;8.20;4.18;;;13.70;88.90;;;;;;5080936;28;20157;-64
2024/03/13 11:59:50;;;;;;;4.93;2.63;;;13.70;88.50;;;;;;5084378;28;20032;-64
2024/03/13 12:02:28;;;;;;;7.20;3.45;;;13.60;88.60;;;;;;5079713;28;20036;-64
2024/03/13 12:05:03;;;;;;;10.85;4.53;;;13.70;88.60;;;;;;5085179;28;20028;-64
2024/03/13 12:07:34;;;;;;;6.65;3.85;;;13.70;88.50;;;;;;5088664;28;20032;-64
2024/03/13 12:10:01;;;;;;;11.95;3.83;;;13.70;88.50;;;;;;5081363;28;20077;-64
2024/03/13 12:12:26;;;;;;;6.95;3.83;;;13.70;88.40;;;;;;5078698;28;20453;-64
2024/03/13 12:14:52;;;;;;;8.50;4.00;;;13.70;88.40;;;;;;5088282;28;20028;-64
2024/03/13 12:17:18;;;;;;;6.72;3.63;;;13.70;88.50;;;;;;5077158;28;20040;-64
2024/03/13 12:19:44;;;;;;;7.95;3.88;;;13.70;88.40;;;;;;5080307;28;20086;-64
2024/03/13 12:22:12;;;;;;;8.38;4.43;;;13.80;88.20;;;;;;5077846;28;20029;-64
2024/03/13 12:24:38;;;;;;;6.40;4.15;;;13.80;88.20;;;;;;5084677;28;20043;-64
2024/03/13 12:27:07;;;;;;;11.32;5.07;;;13.90;88.10;;;;;;5082573;28;20081;-64
2024/03/13 12:29:38;;;;;;;13.50;4.75;;;13.80;88.10;;;;;;5081874;28;20064;-64
2024/03/13 12:32:08;;;;;;;12.05;5.18;;;13.90;88.10;;;;;;5087753;28;20021;-64
2024/03/13 12:34:35;;;;;;;11.05;5.43;;;13.90;87.90;;;;;;5085102;28;20115;-64
2024/03/13 12:37:00;;;;;;;8.93;4.97;;;13.90;88.00;;;;;;5080045;28;20082;-64
2024/03/13 12:39:26;;;;;;;10.90;2.53;;;13.90;87.90;;;;;;5079263;28;20032;-64
2024/03/13 12:41:52;;;;;;;15.10;5.35;;;14.00;87.90;;;;;;5089246;28;20078;-64
2024/03/13 12:44:18;;;;;;;13.25;4.95;;;14.00;87.60;;;;;;5084596;28;20104;-64
2024/03/13 12:46:44;;;;;;;9.75;4.13;;;14.00;87.60;;;;;;5081863;28;20479;-64
2024/03/13 12:49:14;;;;;;;9.85;4.80;;;14.00;87.70;;;;;;5087817;28;20028;-65
2024/03/13 12:51:40;;;;;;;12.88;5.03;;;14.00;87.70;;;;;;5088106;28;20040;-65
2024/03/13 12:54:06;;;;;;;10.43;4.85;;;14.00;87.70;;;;;;5087410;28;20119;-64
2024/03/13 12:56:33;;;;;;;8.38;4.40;;;14.00;87.50;;;;;;5072960;28;20131;-64
2024/03/13 12:58:59;;;;;;;10.57;4.40;;;14.00;87.60;;;;;;5081938;28;20027;-64
2024/03/13 13:01:26;;;;;;;11.40;5.13;;;14.00;87.50;;;;;;5087294;28;20110;-65
2024/03/13 13:03:53;;;;;;;9.25;5.15;;;14.00;87.30;;;;;;5080613;28;20050;-64
2024/03/13 13:06:19;;;;;;;10.18;4.88;;;14.00;87.50;;;;;;5081742;28;20017;-63